createdAt,value
2019-05-21T04:34:57.801Z,1002.44
2019-05-21T06:00:35.871Z,1003.11
2019-05-21T06:01:35.883Z,1003.08
2019-05-21T06:02:35.826Z,1003.10
2019-05-21T06:03:37.550Z,1003.06
2019-05-21T06:04:35.806Z,1003.19
2019-05-21T06:05:35.798Z,1003.12
2019-05-21T06:06:35.782Z,1003.08
2019-05-21T06:07:35.812Z,1003.12
2019-05-21T06:08:35.767Z,1003.15
2019-05-21T06:09:35.753Z,1003.18
2019-05-21T06:10:39.829Z,1003.23
2019-05-21T06:11:35.753Z,1003.16
2019-05-21T06:12:35.722Z,1003.19
2019-05-21T06:13:35.733Z,1003.23
2019-05-21T06:14:35.698Z,1003.19
2019-05-21T06:15:35.686Z,1003.28
2019-05-21T06:16:35.792Z,1003.32
2019-05-21T06:17:35.666Z,1003.32
2019-05-21T06:18:35.897Z,1003.29
2019-05-21T06:19:35.644Z,1003.31
2019-05-21T06:20:35.638Z,1003.30
2019-05-21T06:21:35.653Z,1003.34
2019-05-21T06:22:35.624Z,1003.37
2019-05-21T06:23:35.605Z,1003.35
2019-05-21T06:24:35.602Z,1003.40
2019-05-21T06:25:35.662Z,1003.41
2019-05-21T06:26:35.571Z,1003.39
2019-05-21T06:27:35.567Z,1003.37
2019-05-21T06:28:35.565Z,1003.38
2019-05-21T06:29:39.336Z,1003.44
2019-05-21T06:30:35.539Z,1003.39
2019-05-21T06:31:35.517Z,1003.44
2019-05-21T06:32:35.511Z,1003.44
2019-05-21T06:33:35.498Z,1003.46
2019-05-21T06:34:35.516Z,1003.42
2019-05-21T06:35:35.476Z,1003.51
2019-05-21T06:36:35.483Z,1003.52
2019-05-21T06:37:35.474Z,1003.55
2019-05-21T06:38:35.552Z,1003.48
2019-05-21T06:39:35.443Z,1003.52
2019-05-21T06:40:38.374Z,1003.48
2019-05-21T06:41:35.454Z,1003.54
2019-05-21T06:42:35.404Z,1003.51
2019-05-21T06:43:35.422Z,1003.50
2019-05-21T06:44:35.383Z,1003.59
2019-05-21T06:45:35.369Z,1003.60
2019-05-21T06:46:35.383Z,1003.64
2019-05-21T06:47:35.383Z,1003.58
2019-05-21T06:48:35.378Z,1003.64
2019-05-21T06:49:35.368Z,1003.61
2019-05-21T06:50:37.486Z,1003.58
2019-05-21T06:51:35.308Z,1003.59
2019-05-21T06:52:35.325Z,1003.66
2019-05-21T06:53:35.295Z,1003.67
2019-05-21T06:54:35.295Z,1003.57
2019-05-21T06:55:35.262Z,1003.66
2019-05-21T06:56:35.252Z,1003.63
2019-05-21T06:57:35.277Z,1003.65
2019-05-21T06:58:35.262Z,1003.66
2019-05-21T06:59:35.216Z,1003.69
2019-05-21T07:00:35.210Z,1003.66
2019-05-21T07:01:35.199Z,1003.78
2019-05-21T07:02:35.218Z,1003.76
2019-05-21T07:03:35.192Z,1003.76
2019-05-21T07:04:35.164Z,1003.68
2019-05-21T07:05:35.160Z,1003.71
2019-05-21T07:06:35.178Z,1003.75
2019-05-21T07:07:35.152Z,1003.73
2019-05-21T07:08:35.392Z,1003.83
2019-05-21T07:09:35.112Z,1003.83
2019-05-21T07:10:35.144Z,1003.80
2019-05-21T07:11:35.142Z,1003.77
2019-05-21T07:12:35.093Z,1003.76
2019-05-21T07:13:35.070Z,1003.75
2019-05-21T07:14:35.057Z,1003.71
2019-05-21T07:15:35.047Z,1003.75
2019-05-21T07:16:35.070Z,1003.78
2019-05-21T07:17:35.026Z,1003.75
2019-05-21T07:18:35.015Z,1003.72
2019-05-21T07:19:35.010Z,1003.84
2019-05-21T07:20:35.031Z,1003.76
2019-05-21T07:21:34.998Z,1003.79
2019-05-21T07:22:35.037Z,1003.79
2019-05-21T07:23:34.973Z,1003.73
2019-05-21T07:24:36.620Z,1003.83
2019-05-21T07:25:34.967Z,1003.80
2019-05-21T07:26:34.931Z,1003.83
2019-05-21T07:27:34.953Z,1003.75
2019-05-21T07:28:34.930Z,1003.81
2019-05-21T07:29:34.967Z,1003.88
2019-05-21T07:30:34.902Z,1003.82
2019-05-21T07:31:34.878Z,1003.86
2019-05-21T07:32:34.874Z,1003.85
2019-05-21T07:33:34.889Z,1003.85
2019-05-21T07:34:34.858Z,1003.86
2019-05-21T07:35:34.873Z,1003.89
2019-05-21T07:36:34.826Z,1003.90
2019-05-21T07:37:34.814Z,1003.87
2019-05-21T07:38:50.285Z,1003.98
2019-05-21T07:39:35.799Z,1003.93
2019-05-21T07:40:34.871Z,1003.91
2019-05-21T07:41:34.775Z,1003.99
2019-05-21T07:42:34.799Z,1004.00
2019-05-21T07:43:34.812Z,1004.08
2019-05-21T07:44:34.759Z,1004.07
2019-05-21T07:45:34.734Z,1004.08
2019-05-21T07:46:34.726Z,1004.11
2019-05-21T07:47:34.748Z,1004.07
2019-05-21T07:48:34.705Z,1004.11
2019-05-21T07:49:34.734Z,1004.17
2019-05-21T07:50:34.684Z,1004.13
2019-05-21T07:51:34.705Z,1004.20
2019-05-21T07:52:34.670Z,1004.18
2019-05-21T07:53:34.660Z,1004.22
2019-05-21T07:54:34.655Z,1004.25
2019-05-21T07:55:35.054Z,1004.25
2019-05-21T07:56:34.625Z,1004.30
2019-05-21T07:57:34.631Z,1004.33
2019-05-21T07:58:34.615Z,1004.34
2019-05-21T07:59:34.582Z,1004.45
2019-05-21T08:00:34.602Z,1004.29
2019-05-21T08:01:34.562Z,1004.40
2019-05-21T08:02:34.582Z,1004.38
2019-05-21T08:03:34.591Z,1004.42
2019-05-21T08:04:34.555Z,1004.45
2019-05-21T08:05:34.576Z,1004.45
2019-05-21T08:06:34.516Z,1004.50
2019-05-21T08:07:34.513Z,1004.46
2019-05-21T08:08:34.509Z,1004.42
2019-05-21T08:09:34.478Z,1004.36
2019-05-21T08:10:34.577Z,1004.40
2019-05-21T08:11:34.454Z,1004.36
2019-05-21T08:12:39.467Z,1004.42
2019-05-21T08:13:35.474Z,1004.45
2019-05-21T08:14:34.462Z,1004.39
2019-05-21T08:15:34.421Z,1004.44
2019-05-21T08:16:34.433Z,1004.47
2019-05-21T08:17:34.406Z,1004.48
2019-05-21T08:18:34.421Z,1004.44
2019-05-21T08:19:34.384Z,1004.44
2019-05-21T08:20:34.422Z,1004.39
2019-05-21T08:21:34.366Z,1004.42
2019-05-21T08:22:34.375Z,1004.41
2019-05-21T08:23:34.373Z,1004.51
2019-05-21T08:24:34.327Z,1004.53
2019-05-21T08:25:34.311Z,1004.53
2019-05-21T08:26:34.338Z,1004.54
2019-05-21T08:27:34.320Z,1004.50
2019-05-21T08:28:34.294Z,1004.59
2019-05-21T08:29:34.273Z,1004.56
2019-05-21T08:30:34.259Z,1004.63
2019-05-21T08:31:34.322Z,1004.63
2019-05-21T08:32:34.265Z,1004.66
2019-05-21T08:33:34.277Z,1004.64
2019-05-21T08:34:34.260Z,1004.69
2019-05-21T08:35:34.195Z,1004.65
2019-05-21T08:36:35.204Z,1004.76
2019-05-21T08:37:34.191Z,1004.75
2019-05-21T08:38:34.173Z,1004.79
2019-05-21T08:39:34.180Z,1004.74
2019-05-21T08:40:34.172Z,1004.74
2019-05-21T08:41:34.146Z,1004.74
2019-05-21T08:42:34.165Z,1004.79
2019-05-21T08:43:34.136Z,1004.75
2019-05-21T08:44:34.127Z,1004.81
2019-05-21T08:45:34.306Z,1004.79
2019-05-21T08:46:34.128Z,1004.80
2019-05-21T08:47:34.109Z,1004.88
2019-05-21T08:48:34.064Z,1004.76
2019-05-21T08:49:34.056Z,1004.83
2019-05-21T08:50:34.037Z,1004.84
2019-05-21T08:51:34.032Z,1004.80
2019-05-21T08:52:34.067Z,1004.88
2019-05-21T08:53:34.091Z,1004.94
2019-05-21T08:54:34.013Z,1004.96
2019-05-21T08:55:33.997Z,1004.95
2019-05-21T08:56:34.003Z,1004.98
2019-05-21T08:57:34.012Z,1005.08
2019-05-21T08:58:33.951Z,1005.01
2019-05-21T08:59:33.941Z,1005.12
2019-05-21T09:00:33.947Z,1005.18
2019-05-21T09:01:33.951Z,1005.25
2019-05-21T09:02:33.939Z,1005.29
2019-05-21T09:03:33.900Z,1005.27
2019-05-21T09:04:45.873Z,1005.33
2019-05-21T09:05:34.909Z,1005.40
2019-05-21T09:06:33.898Z,1005.28
2019-05-21T09:07:33.850Z,1005.44
2019-05-21T09:08:33.871Z,1005.44
2019-05-21T09:09:49.213Z,1005.45
2019-05-21T09:10:34.827Z,1005.44
2019-05-21T09:11:33.846Z,1005.45
2019-05-21T09:12:33.832Z,1005.45
2019-05-21T09:13:33.797Z,1005.36
2019-05-21T09:14:33.790Z,1005.44
2019-05-21T09:15:33.892Z,1005.47
2019-05-21T09:16:33.775Z,1005.55
2019-05-21T09:17:33.800Z,1005.52
2019-05-21T09:18:33.759Z,1005.48
2019-05-21T09:19:36.408Z,1005.58
2019-05-21T09:20:33.772Z,1005.51
2019-05-21T09:21:33.761Z,1005.57
2019-05-21T09:22:33.695Z,1005.57
2019-05-21T09:23:33.689Z,1005.55
2019-05-21T09:24:33.679Z,1005.55
2019-05-21T09:25:33.705Z,1005.55
2019-05-21T09:26:33.657Z,1005.49
2019-05-21T09:27:33.643Z,1005.47
2019-05-21T09:28:33.721Z,1005.46
2019-05-21T09:29:33.684Z,1005.43
2019-05-21T09:30:33.610Z,1005.42
2019-05-21T09:31:33.603Z,1005.43
2019-05-21T09:32:33.617Z,1005.41
2019-05-21T09:33:33.605Z,1005.44
2019-05-21T09:34:47.556Z,1005.37
2019-05-21T09:35:34.565Z,1005.42
2019-05-21T09:36:33.593Z,1005.39
2019-05-21T09:37:33.539Z,1005.37
2019-05-21T09:38:33.526Z,1005.38
2019-05-21T09:39:33.510Z,1005.44
2019-05-21T09:40:33.504Z,1005.52
2019-05-21T09:41:33.519Z,1005.55
2019-05-21T09:42:33.503Z,1005.46
2019-05-21T09:43:33.505Z,1005.52
2019-05-21T09:44:33.487Z,1005.57
2019-05-21T09:45:33.475Z,1005.63
2019-05-21T09:46:33.447Z,1005.56
2019-05-21T09:47:33.467Z,1005.58
2019-05-21T09:48:33.420Z,1005.57
2019-05-21T09:49:33.449Z,1005.67
2019-05-21T09:50:33.436Z,1005.66
2019-05-21T09:51:33.387Z,1005.64
2019-05-21T09:52:33.426Z,1005.76
2019-05-21T09:53:33.365Z,1005.67
2019-05-21T09:54:33.382Z,1005.63
2019-05-21T09:55:33.896Z,1005.63
2019-05-21T09:56:33.353Z,1005.62
2019-05-21T09:57:33.322Z,1005.61
2019-05-21T09:58:33.353Z,1005.63
2019-05-21T09:59:33.339Z,1005.69
2019-05-21T10:00:33.313Z,1005.63
2019-05-21T10:01:33.294Z,1005.65
2019-05-21T10:02:33.295Z,1005.62
2019-05-21T10:03:33.267Z,1005.61
2019-05-21T10:04:33.285Z,1005.56
2019-05-21T10:05:33.249Z,1005.61
2019-05-21T10:06:33.305Z,1005.59
2019-05-21T10:07:39.822Z,1005.63
2019-05-21T10:08:37.111Z,1005.60
2019-05-21T10:09:33.196Z,1005.58
2019-05-21T10:10:33.246Z,1005.59
2019-05-21T10:11:33.179Z,1005.64
2019-05-21T10:12:33.160Z,1005.55
2019-05-21T10:13:33.171Z,1005.60
2019-05-21T10:14:34.270Z,1005.65
2019-05-21T10:15:33.187Z,1005.58
2019-05-21T10:16:33.157Z,1005.60
2019-05-21T10:17:33.128Z,1005.60
2019-05-21T10:18:33.116Z,1005.61
2019-05-21T10:19:33.152Z,1005.70
2019-05-21T10:20:33.094Z,1005.64
2019-05-21T10:21:33.077Z,1005.61
2019-05-21T10:22:33.065Z,1005.67
2019-05-21T10:23:33.102Z,1005.74
2019-05-21T10:24:33.085Z,1005.74
2019-05-21T10:25:33.047Z,1005.80
2019-05-21T10:26:33.117Z,1005.73
2019-05-21T10:27:33.004Z,1005.77
2019-05-21T10:28:33.023Z,1005.78
2019-05-21T10:29:33.000Z,1005.80
2019-05-21T10:30:33.012Z,1005.79
2019-05-21T10:31:32.968Z,1005.78
2019-05-21T10:32:32.983Z,1005.95
2019-05-21T10:33:33.013Z,1005.84
2019-05-21T10:34:32.960Z,1005.80
2019-05-21T10:35:32.923Z,1005.90
2019-05-21T10:36:32.910Z,1005.88
2019-05-21T10:37:32.915Z,1005.90
2019-05-21T10:38:32.888Z,1005.95
2019-05-21T10:39:32.915Z,1005.86
2019-05-21T10:40:32.861Z,1005.89
2019-05-21T10:41:32.864Z,1005.77
2019-05-21T10:42:32.888Z,1005.81
2019-05-21T10:43:32.845Z,1005.87
2019-05-21T10:44:32.828Z,1005.89
2019-05-21T10:45:33.156Z,1005.86
2019-05-21T10:46:32.848Z,1005.84
2019-05-21T10:47:32.794Z,1005.85
2019-05-21T10:48:32.782Z,1005.91
2019-05-21T10:49:32.801Z,1005.90
2019-05-21T10:50:32.828Z,1005.86
2019-05-21T10:51:32.813Z,1005.91
2019-05-21T10:52:32.759Z,1005.96
2019-05-21T10:53:32.754Z,1005.87
2019-05-21T10:54:32.792Z,1005.91
2019-05-21T10:55:32.735Z,1005.88
2019-05-21T10:56:46.766Z,1005.92
2019-05-21T10:57:33.862Z,1005.94
2019-05-21T10:58:32.678Z,1005.95
2019-05-21T10:59:32.662Z,1005.99
2019-05-21T11:00:32.658Z,1005.92
2019-05-21T11:01:32.669Z,1005.99
2019-05-21T11:02:32.634Z,1006.05
2019-05-21T11:03:32.669Z,1006.08
2019-05-21T11:04:32.615Z,1006.05
2019-05-21T11:05:32.600Z,1006.09
2019-05-21T11:06:32.669Z,1006.07
2019-05-21T11:07:32.575Z,1006.02
2019-05-21T11:08:32.676Z,1006.10
2019-05-21T11:09:32.552Z,1006.19
2019-05-21T11:10:32.570Z,1006.12
2019-05-21T11:11:32.536Z,1006.14
2019-05-21T11:12:32.522Z,1006.11
2019-05-21T11:13:32.575Z,1006.21
2019-05-21T11:14:32.508Z,1006.18
2019-05-21T11:15:32.729Z,1006.15
2019-05-21T11:16:32.514Z,1006.19
2019-05-21T11:17:46.937Z,1006.30
2019-05-21T11:18:33.455Z,1006.22
2019-05-21T11:19:32.451Z,1006.23
2019-05-21T11:20:32.461Z,1006.28
2019-05-21T11:21:32.433Z,1006.22
2019-05-21T11:22:32.454Z,1006.25
2019-05-21T11:23:32.473Z,1006.25
2019-05-21T11:24:32.411Z,1006.24
2019-05-21T11:25:32.383Z,1006.31
2019-05-21T11:26:32.371Z,1006.32
2019-05-21T11:27:32.365Z,1006.28
2019-05-21T11:28:32.379Z,1006.30
2019-05-21T11:29:32.355Z,1006.32
2019-05-21T11:30:32.466Z,1006.32
2019-05-21T11:31:32.323Z,1006.36
2019-05-21T11:32:32.307Z,1006.38
2019-05-21T11:33:32.344Z,1006.40
2019-05-21T11:34:32.298Z,1006.38
2019-05-21T11:35:35.615Z,1006.35
2019-05-21T11:36:32.271Z,1006.35
2019-05-21T11:37:32.259Z,1006.40
2019-05-21T11:38:40.127Z,1006.41
2019-05-21T11:39:33.239Z,1006.34
2019-05-21T11:40:32.248Z,1006.46
2019-05-21T11:41:32.227Z,1006.41
2019-05-21T11:42:32.237Z,1006.45
2019-05-21T11:43:32.223Z,1006.43
2019-05-21T11:44:32.191Z,1006.55
2019-05-21T11:45:33.161Z,1006.44
2019-05-21T11:46:32.161Z,1006.54
2019-05-21T11:47:32.159Z,1006.46
2019-05-21T11:48:32.177Z,1006.50
2019-05-21T11:49:32.191Z,1006.50
2019-05-21T11:50:32.143Z,1006.55
2019-05-21T11:51:32.120Z,1006.49
2019-05-21T11:52:32.144Z,1006.48
2019-05-21T11:53:32.403Z,1006.52
2019-05-21T11:54:32.087Z,1006.61
2019-05-21T11:55:32.063Z,1006.59
2019-05-21T11:56:32.076Z,1006.51
2019-05-21T11:57:32.099Z,1006.57
2019-05-21T11:58:32.031Z,1006.59
2019-05-21T11:59:32.024Z,1006.58
2019-05-21T12:00:32.011Z,1006.64
2019-05-21T12:01:32.004Z,1006.51
2019-05-21T12:02:32.019Z,1006.65
2019-05-21T12:03:31.991Z,1006.68
2019-05-21T12:04:31.969Z,1006.54
2019-05-21T12:05:32.012Z,1006.59
2019-05-21T12:06:31.954Z,1006.68
2019-05-21T12:07:31.999Z,1006.66
2019-05-21T12:08:31.958Z,1006.63
2019-05-21T12:09:31.959Z,1006.63
2019-05-21T12:10:31.908Z,1006.65
2019-05-21T12:11:31.921Z,1006.66
2019-05-21T12:12:31.885Z,1006.64
2019-05-21T12:13:31.931Z,1006.69
2019-05-21T12:14:31.865Z,1006.73
2019-05-21T12:15:31.885Z,1006.66
2019-05-21T12:16:31.843Z,1006.73
2019-05-21T12:17:31.865Z,1006.78
2019-05-21T12:18:31.986Z,1006.70
2019-05-21T12:19:31.815Z,1006.77
2019-05-21T12:20:36.818Z,1006.75
2019-05-21T12:21:32.791Z,1006.78
2019-05-21T12:22:31.832Z,1006.77
2019-05-21T12:23:31.822Z,1006.75
2019-05-21T12:24:31.756Z,1006.83
2019-05-21T12:25:31.750Z,1006.84
2019-05-21T12:26:31.746Z,1006.87
2019-05-21T12:27:31.729Z,1006.81
2019-05-21T12:28:31.770Z,1006.86
2019-05-21T12:29:34.240Z,1006.95
2019-05-21T12:30:31.695Z,1006.91
2019-05-21T12:31:31.686Z,1006.95
2019-05-21T12:32:31.711Z,1006.93
2019-05-21T12:33:34.882Z,1007.04
2019-05-21T12:34:31.646Z,1006.95
2019-05-21T12:35:31.654Z,1006.91
2019-05-21T12:36:31.634Z,1006.84
2019-05-21T12:37:31.654Z,1007.00
2019-05-21T12:38:31.608Z,1006.96
2019-05-21T12:39:31.605Z,1007.03
2019-05-21T12:40:31.609Z,1007.05
2019-05-21T12:41:31.575Z,1007.00
2019-05-21T12:42:31.561Z,1006.96
2019-05-21T12:43:31.573Z,1007.01
2019-05-21T12:44:31.562Z,1007.08
2019-05-21T12:45:31.534Z,1007.07
2019-05-21T12:46:31.532Z,1007.02
2019-05-21T12:47:31.513Z,1006.99
2019-05-21T12:48:31.544Z,1007.09
2019-05-21T12:49:31.492Z,1007.07
2019-05-21T12:50:31.478Z,1007.12
2019-05-21T12:51:31.469Z,1007.09
2019-05-21T12:52:33.773Z,1007.11
2019-05-21T12:53:31.474Z,1007.13
2019-05-21T12:54:31.456Z,1007.15
2019-05-21T12:55:31.451Z,1007.12
2019-05-21T12:56:31.419Z,1007.25
2019-05-21T12:57:31.455Z,1007.21
2019-05-21T12:58:31.436Z,1007.17
2019-05-21T12:59:31.426Z,1007.22
2019-05-21T13:00:31.399Z,1007.20
2019-05-21T13:01:31.413Z,1007.15
2019-05-21T13:02:31.352Z,1007.17
2019-05-21T13:03:31.373Z,1007.16
2019-05-21T13:04:31.374Z,1007.20
2019-05-21T13:05:31.420Z,1007.24
2019-05-21T13:06:31.313Z,1007.28
2019-05-21T13:07:31.400Z,1007.29
2019-05-21T13:08:31.300Z,1007.21
2019-05-21T13:09:33.094Z,1007.27
2019-05-21T13:10:31.974Z,1007.42
2019-05-21T13:11:31.307Z,1007.29
2019-05-21T13:12:31.317Z,1007.30
2019-05-21T13:13:31.235Z,1007.32
2019-05-21T13:14:31.269Z,1007.45
2019-05-21T13:15:31.242Z,1007.44
2019-05-21T13:16:31.253Z,1007.40
2019-05-21T13:17:31.225Z,1007.39
2019-05-21T13:18:31.189Z,1007.38
2019-05-21T13:19:31.649Z,1007.36
2019-05-21T13:20:32.275Z,1007.45
2019-05-21T13:21:31.199Z,1007.43
2019-05-21T13:22:31.975Z,1007.50
2019-05-21T13:23:31.152Z,1007.47
2019-05-21T13:24:31.986Z,1007.47
2019-05-21T13:25:31.127Z,1007.52
2019-05-21T13:26:31.123Z,1007.53
2019-05-21T13:27:31.095Z,1007.49
2019-05-21T13:28:31.077Z,1007.64
2019-05-21T13:29:31.170Z,1007.61
2019-05-21T13:30:31.369Z,1007.55
2019-05-21T13:31:31.100Z,1007.60
2019-05-21T13:32:31.040Z,1007.61
2019-05-21T13:33:31.034Z,1007.53
2019-05-21T13:34:31.054Z,1007.54
2019-05-21T13:35:31.098Z,1007.52
2019-05-21T13:36:31.020Z,1007.66
2019-05-21T13:37:31.976Z,1007.55
2019-05-21T13:38:30.965Z,1007.60
2019-05-21T13:39:31.039Z,1007.61
2019-05-21T13:40:31.046Z,1007.56
2019-05-21T13:41:30.933Z,1007.54
2019-05-21T13:42:30.947Z,1007.54
2019-05-21T13:43:30.940Z,1007.64
2019-05-21T13:44:30.930Z,1007.54
2019-05-21T13:45:30.897Z,1007.55
2019-05-21T13:46:30.901Z,1007.67
2019-05-21T13:47:30.961Z,1007.61
2019-05-21T13:48:30.957Z,1007.65
2019-05-21T13:49:30.924Z,1007.69
2019-05-21T13:50:31.876Z,1007.69
2019-05-21T13:51:30.914Z,1007.69
2019-05-21T13:52:31.021Z,1007.63
2019-05-21T13:53:30.803Z,1007.68
2019-05-21T13:54:30.900Z,1007.75
2019-05-21T13:55:34.001Z,1007.67
2019-05-21T13:56:30.858Z,1007.69
2019-05-21T13:57:30.762Z,1007.68
2019-05-21T13:58:30.777Z,1007.77
2019-05-21T13:59:30.743Z,1007.81
2019-05-21T14:00:30.734Z,1007.77
2019-05-21T14:01:40.895Z,1007.80
2019-05-21T14:02:31.737Z,1007.87
2019-05-21T14:03:30.705Z,1007.84
2019-05-21T14:04:30.694Z,1007.86
2019-05-21T14:05:30.751Z,1007.75
2019-05-21T14:06:30.999Z,1007.88
2019-05-21T14:07:30.655Z,1007.77
2019-05-21T14:08:30.752Z,1007.90
2019-05-21T14:09:30.641Z,1007.82
2019-05-21T14:10:30.628Z,1007.90
2019-05-21T14:11:30.626Z,1007.85
2019-05-21T14:12:30.610Z,1007.87
2019-05-21T14:13:30.815Z,1007.88
2019-05-21T14:14:30.594Z,1007.90
2019-05-21T14:15:30.597Z,1007.92
2019-05-21T14:16:34.473Z,1007.91
2019-05-21T14:17:30.565Z,1007.87
2019-05-21T14:18:30.555Z,1007.99
2019-05-21T14:19:30.540Z,1007.94
2019-05-21T14:20:30.563Z,1007.97
2019-05-21T14:21:30.552Z,1008.02
2019-05-21T14:22:30.553Z,1008.04
2019-05-21T14:23:30.489Z,1007.99
2019-05-21T14:24:30.474Z,1007.89
2019-05-21T14:25:30.567Z,1008.04
2019-05-21T14:26:30.473Z,1007.90
2019-05-21T14:27:44.062Z,1008.07
2019-05-21T14:28:34.488Z,1008.06
2019-05-21T14:29:30.455Z,1008.08
2019-05-21T14:30:30.417Z,1008.09
2019-05-21T14:31:30.407Z,1008.04
2019-05-21T14:32:30.406Z,1008.03
2019-05-21T14:33:30.488Z,1008.08
2019-05-21T14:34:30.456Z,1007.96
2019-05-21T14:35:30.373Z,1008.04
2019-05-21T14:36:30.367Z,1008.02
2019-05-21T14:37:30.443Z,1008.07
2019-05-21T14:38:30.436Z,1008.04
2019-05-21T14:39:30.455Z,1008.07
2019-05-21T14:40:32.306Z,1008.07
2019-05-21T14:41:30.295Z,1008.10
2019-05-21T14:42:30.315Z,1008.04
2019-05-21T14:43:30.345Z,1008.11
2019-05-21T14:44:30.497Z,1008.06
2019-05-21T14:45:34.041Z,1008.12
2019-05-21T14:46:30.539Z,1008.13
2019-05-21T14:47:30.385Z,1008.16
2019-05-21T14:48:30.221Z,1008.17
2019-05-21T14:49:30.222Z,1008.16
2019-05-21T14:50:30.279Z,1008.11
2019-05-21T14:51:30.242Z,1008.09
2019-05-21T14:52:30.954Z,1008.16
2019-05-21T14:53:30.168Z,1008.08
2019-05-21T14:54:30.200Z,1008.16
2019-05-21T14:55:31.230Z,1008.18
2019-05-21T14:56:30.204Z,1008.13
2019-05-21T14:57:30.210Z,1008.18
2019-05-21T14:58:30.202Z,1008.21
2019-05-21T14:59:30.106Z,1008.25
2019-05-21T15:00:30.139Z,1008.19
2019-05-21T15:01:30.113Z,1008.21
2019-05-21T15:02:30.095Z,1008.18
2019-05-21T15:03:30.094Z,1008.23
2019-05-21T15:04:31.090Z,1008.17
2019-05-21T15:05:30.083Z,1008.25
2019-05-21T15:06:30.072Z,1008.21
2019-05-21T15:07:30.016Z,1008.20
2019-05-21T15:08:30.010Z,1008.24
2019-05-21T15:09:30.012Z,1008.24
2019-05-21T15:10:30.015Z,1008.26
2019-05-21T15:11:30.012Z,1008.27
2019-05-21T15:12:29.965Z,1008.23
2019-05-21T15:13:30.034Z,1008.24
2019-05-21T15:14:29.948Z,1008.25
2019-05-21T15:15:29.946Z,1008.25
2019-05-21T15:16:29.975Z,1008.32
2019-05-21T15:17:29.927Z,1008.27
2019-05-21T15:18:29.932Z,1008.29
2019-05-21T15:19:29.914Z,1008.25
2019-05-21T15:20:30.057Z,1008.27
2019-05-21T15:21:29.892Z,1008.31
2019-05-21T15:22:29.935Z,1008.31
2019-05-21T15:23:29.847Z,1008.31
2019-05-21T15:24:33.281Z,1008.31
2019-05-21T15:25:29.879Z,1008.34
2019-05-21T15:26:29.855Z,1008.37
2019-05-21T15:27:29.805Z,1008.34
2019-05-21T15:28:29.824Z,1008.32
2019-05-21T15:29:30.910Z,1008.29
2019-05-21T15:30:29.772Z,1008.37
2019-05-21T15:31:30.001Z,1008.37
2019-05-21T15:32:30.895Z,1008.35
2019-05-21T15:33:29.762Z,1008.40
2019-05-21T15:34:29.756Z,1008.35
2019-05-21T15:35:29.782Z,1008.35
2019-05-21T15:36:29.746Z,1008.36
2019-05-21T15:37:29.729Z,1008.38
2019-05-21T15:38:48.163Z,1008.30
2019-05-21T15:39:30.675Z,1008.37
2019-05-21T15:40:29.665Z,1008.39
2019-05-21T15:41:29.692Z,1008.40
2019-05-21T15:42:29.676Z,1008.34
2019-05-21T15:43:29.638Z,1008.34
2019-05-21T15:44:29.676Z,1008.38
2019-05-21T15:45:29.614Z,1008.42
2019-05-21T15:46:46.846Z,1008.42
2019-05-21T15:47:30.599Z,1008.39
2019-05-21T15:48:29.584Z,1008.44
2019-05-21T15:49:36.373Z,1008.44
2019-05-21T15:50:30.584Z,1008.44
2019-05-21T15:51:30.424Z,1008.46
2019-05-21T15:52:29.584Z,1008.42
2019-05-21T15:53:29.528Z,1008.45
2019-05-21T15:54:29.548Z,1008.46
2019-05-21T15:55:29.538Z,1008.44
2019-05-21T15:56:29.506Z,1008.45
2019-05-21T15:57:29.490Z,1008.47
2019-05-21T15:58:29.478Z,1008.44
2019-05-21T15:59:29.492Z,1008.43
2019-05-21T16:00:29.465Z,1008.46
2019-05-21T16:01:29.450Z,1008.44
2019-05-21T16:02:29.441Z,1008.48
2019-05-21T16:03:29.460Z,1008.48
2019-05-21T16:04:29.553Z,1008.52
2019-05-21T16:05:29.472Z,1008.44
2019-05-21T16:06:29.423Z,1008.48
2019-05-21T16:07:29.412Z,1008.50
2019-05-21T16:08:29.482Z,1008.47
2019-05-21T16:09:29.525Z,1008.51
2019-05-21T16:10:29.460Z,1008.55
2019-05-21T16:11:29.536Z,1008.47
2019-05-21T16:12:29.725Z,1008.57
2019-05-21T16:13:29.971Z,1008.55
2019-05-21T16:14:29.506Z,1008.50
2019-05-21T16:15:29.296Z,1008.54
2019-05-21T16:16:29.287Z,1008.54
2019-05-21T16:17:29.335Z,1008.53
2019-05-21T16:18:29.312Z,1008.54
2019-05-21T16:19:29.251Z,1008.54
2019-05-21T16:20:29.257Z,1008.50
2019-05-21T16:21:29.238Z,1008.53
2019-05-21T16:22:29.258Z,1008.53
2019-05-21T16:23:29.215Z,1008.60
2019-05-21T16:24:29.212Z,1008.51
2019-05-21T16:25:29.184Z,1008.60
2019-05-21T16:26:29.175Z,1008.58
2019-05-21T16:27:29.242Z,1008.61
2019-05-21T16:28:29.167Z,1008.61
2019-05-21T16:29:29.187Z,1008.62
2019-05-21T16:30:29.133Z,1008.63
2019-05-21T16:31:29.154Z,1008.63
2019-05-21T16:32:29.195Z,1008.54
2019-05-21T16:33:29.284Z,1008.62
2019-05-21T16:34:32.115Z,1008.63
2019-05-21T16:35:29.106Z,1008.62
2019-05-21T16:36:29.076Z,1008.61
2019-05-21T16:37:29.096Z,1008.60
2019-05-21T16:38:29.065Z,1008.60
2019-05-21T16:39:29.035Z,1008.64
2019-05-21T16:40:29.028Z,1008.59
2019-05-21T16:41:43.443Z,1008.63
2019-05-21T16:42:30.053Z,1008.63
2019-05-21T16:43:29.009Z,1008.62
2019-05-21T16:44:36.627Z,1008.66
2019-05-21T16:45:28.972Z,1008.64
2019-05-21T16:46:29.012Z,1008.66
2019-05-21T16:47:43.834Z,1008.67
2019-05-21T16:48:29.968Z,1008.63
2019-05-21T16:49:29.020Z,1008.68
2019-05-21T16:50:28.923Z,1008.64
2019-05-21T16:51:28.918Z,1008.70
2019-05-21T16:52:29.098Z,1008.72
2019-05-21T16:53:28.913Z,1008.64
2019-05-21T16:54:28.947Z,1008.71
2019-05-21T16:55:28.869Z,1008.66
2019-05-21T16:56:28.877Z,1008.66
2019-05-21T16:57:28.877Z,1008.64
2019-05-21T16:58:28.836Z,1008.67
2019-05-21T16:59:28.865Z,1008.66
2019-05-21T17:00:28.821Z,1008.70
2019-05-21T17:01:28.883Z,1008.67
2019-05-21T17:02:28.829Z,1008.68
2019-05-21T17:03:28.787Z,1008.69
2019-05-21T17:04:28.769Z,1008.69
2019-05-21T17:05:28.831Z,1008.66
2019-05-21T17:06:28.758Z,1008.72
2019-05-21T17:07:28.737Z,1008.71
2019-05-21T17:08:28.729Z,1008.74
2019-05-21T17:09:28.719Z,1008.70
2019-05-21T17:10:29.020Z,1008.75
2019-05-21T17:11:28.696Z,1008.72
2019-05-21T17:12:28.726Z,1008.79
2019-05-21T17:13:28.683Z,1008.74
2019-05-21T17:14:28.672Z,1008.79
2019-05-21T17:15:28.676Z,1008.77
2019-05-21T17:16:28.646Z,1008.72
2019-05-21T17:17:28.659Z,1008.74
2019-05-21T17:18:28.618Z,1008.73
2019-05-21T17:19:28.612Z,1008.75
2019-05-21T17:20:28.638Z,1008.75
2019-05-21T17:21:28.635Z,1008.71
2019-05-21T17:22:28.596Z,1008.76
2019-05-21T17:23:28.593Z,1008.80
2019-05-21T17:24:28.569Z,1008.77
2019-05-21T17:25:28.548Z,1008.87
2019-05-21T17:26:28.551Z,1008.78
2019-05-21T17:27:28.557Z,1008.78
2019-05-21T17:28:28.525Z,1008.81
2019-05-21T17:29:28.580Z,1008.79
2019-05-21T17:30:28.504Z,1008.83
2019-05-21T17:31:28.713Z,1008.84
2019-05-21T17:32:28.554Z,1008.85
2019-05-21T17:33:28.465Z,1008.79
2019-05-21T17:34:28.591Z,1008.80
2019-05-21T17:35:28.508Z,1008.85
2019-05-21T17:36:28.439Z,1008.83
2019-05-21T17:37:28.538Z,1008.87
2019-05-21T17:38:28.415Z,1008.86
2019-05-21T17:39:28.424Z,1008.85
2019-05-21T17:40:28.394Z,1008.83
2019-05-21T17:41:28.418Z,1008.83
2019-05-21T17:42:28.384Z,1008.81
2019-05-21T17:43:28.359Z,1008.85
2019-05-21T17:44:28.346Z,1008.80
2019-05-21T17:45:28.331Z,1008.87
2019-05-21T17:46:28.395Z,1008.77
2019-05-21T17:47:28.310Z,1008.84
2019-05-21T17:48:28.345Z,1008.89
2019-05-21T17:49:28.296Z,1008.83
2019-05-21T17:50:28.348Z,1008.80
2019-05-21T17:51:28.261Z,1008.82
2019-05-21T17:52:28.263Z,1008.89
2019-05-21T17:53:28.258Z,1008.85
2019-05-21T17:54:28.236Z,1008.80
2019-05-21T17:55:28.249Z,1008.91
2019-05-21T17:56:28.251Z,1008.89
2019-05-21T17:57:28.208Z,1008.92
2019-05-21T17:58:28.199Z,1008.89
2019-05-21T17:59:28.198Z,1008.90
2019-05-21T18:00:28.178Z,1008.88
2019-05-21T18:01:28.202Z,1008.92
2019-05-21T18:02:28.165Z,1008.88
2019-05-21T18:03:28.144Z,1008.93
2019-05-21T18:04:28.191Z,1008.94